Fields Landing, California
Current Conditions -  °F | °C
As of 9:35 AM on Thursday 30 Oct 2014 (Local Time) from KFOT Reporting Station
Clear Clear  
Wind Chill: 57°   Ceiling: Unl
Heat Index: 57°   Visibility: 5mi
Dew Point: 57°   Wind: 8mph
Humidity: 100%   Direction: 130°SE
Pressure: 29.93"   Gusts: NA
Location:  40.72°N, 124.22°W
Report Text: KFOT 301635Z AUTO 13007KT 5SM CLR 14/14 A2993 RMK AO1
Loading
Personal Weather Stations






























Interactive Weather Map
Tropical Storm Tracking
New forecast layout! Learn more

10-Day Weather Forecast

Advertisements
Track Severe Weather on mobile